sensor_id;sensor_type;location;lat;lon;timestamp;P1;durP1;ratioP1;P2;durP2;ratioP2
20511;SDS011;10414;52.074;5.126;2024-03-07T00:00:21;57.83;;;23.13;;
20511;SDS011;10414;52.074;5.126;2024-03-07T00:02:48;55.17;;;21.00;;
20511;SDS011;10414;52.074;5.126;2024-03-07T00:05:16;52.70;;;20.38;;
20511;SDS011;10414;52.074;5.126;2024-03-07T00:07:44;53.35;;;19.60;;
20511;SDS011;10414;52.074;5.126;2024-03-07T00:10:13;62.53;;;22.38;;
20511;SDS011;10414;52.074;5.126;2024-03-07T00:12:40;57.08;;;21.00;;
20511;SDS011;10414;52.074;5.126;2024-03-07T00:15:08;55.25;;;20.70;;
20511;SDS011;10414;52.074;5.126;2024-03-07T00:17:36;47.88;;;19.00;;
20511;SDS011;10414;52.074;5.126;2024-03-07T00:20:03;54.45;;;20.95;;
20511;SDS011;10414;52.074;5.126;2024-03-07T00:25:01;64.38;;;21.63;;
20511;SDS011;10414;52.074;5.126;2024-03-07T00:27:31;57.30;;;20.63;;
20511;SDS011;10414;52.074;5.126;2024-03-07T00:29:58;62.50;;;22.10;;
20511;SDS011;10414;52.074;5.126;2024-03-07T00:32:26;57.10;;;20.92;;
20511;SDS011;10414;52.074;5.126;2024-03-07T00:34:55;53.55;;;20.45;;
20511;SDS011;10414;52.074;5.126;2024-03-07T00:37:22;50.75;;;18.33;;
20511;SDS011;10414;52.074;5.126;2024-03-07T00:39:50;57.88;;;21.10;;
20511;SDS011;10414;52.074;5.126;2024-03-07T00:42:17;57.83;;;21.70;;
20511;SDS011;10414;52.074;5.126;2024-03-07T00:44:46;57.35;;;21.50;;
20511;SDS011;10414;52.074;5.126;2024-03-07T00:47:14;56.58;;;22.17;;
20511;SDS011;10414;52.074;5.126;2024-03-07T00:49:43;65.22;;;24.38;;
20511;SDS011;10414;52.074;5.126;2024-03-07T00:52:10;58.70;;;22.13;;
20511;SDS011;10414;52.074;5.126;2024-03-07T00:54:38;59.22;;;21.83;;
20511;SDS011;10414;52.074;5.126;2024-03-07T00:57:05;57.00;;;20.42;;
20511;SDS011;10414;52.074;5.126;2024-03-07T00:59:32;56.72;;;21.80;;
20511;SDS011;10414;52.074;5.126;2024-03-07T01:02:01;65.65;;;24.58;;
20511;SDS011;10414;52.074;5.126;2024-03-07T01:04:29;64.28;;;24.27;;
20511;SDS011;10414;52.074;5.126;2024-03-07T01:06:58;61.22;;;23.52;;
20511;SDS011;10414;52.074;5.126;2024-03-07T01:09:26;62.20;;;23.35;;
20511;SDS011;10414;52.074;5.126;2024-03-07T01:11:54;62.55;;;23.08;;
20511;SDS011;10414;52.074;5.126;2024-03-07T01:14:21;62.65;;;22.25;;
20511;SDS011;10414;52.074;5.126;2024-03-07T01:16:48;65.53;;;22.45;;
20511;SDS011;10414;52.074;5.126;2024-03-07T01:19:17;50.65;;;19.20;;
20511;SDS011;10414;52.074;5.126;2024-03-07T01:21:44;65.90;;;22.63;;
20511;SDS011;10414;52.074;5.126;2024-03-07T01:24:12;65.57;;;22.55;;
20511;SDS011;10414;52.074;5.126;2024-03-07T01:26:42;63.45;;;23.33;;
20511;SDS011;10414;52.074;5.126;2024-03-07T01:29:10;62.30;;;23.65;;
20511;SDS011;10414;52.074;5.126;2024-03-07T01:31:37;70.00;;;21.98;;
20511;SDS011;10414;52.074;5.126;2024-03-07T01:34:04;58.30;;;19.95;;
20511;SDS011;10414;52.074;5.126;2024-03-07T01:36:33;61.92;;;22.25;;
20511;SDS011;10414;52.074;5.126;2024-03-07T01:39:00;61.58;;;21.55;;
20511;SDS011;10414;52.074;5.126;2024-03-07T01:41:28;63.83;;;23.50;;
20511;SDS011;10414;52.074;5.126;2024-03-07T01:43:55;64.32;;;22.15;;
20511;SDS011;10414;52.074;5.126;2024-03-07T01:46:23;62.67;;;23.58;;
20511;SDS011;10414;52.074;5.126;2024-03-07T01:48:50;60.30;;;21.98;;
20511;SDS011;10414;52.074;5.126;2024-03-07T01:51:18;58.30;;;21.15;;
20511;SDS011;10414;52.074;5.126;2024-03-07T01:53:48;63.72;;;21.30;;
20511;SDS011;10414;52.074;5.126;2024-03-07T01:56:15;62.20;;;24.10;;
20511;SDS011;10414;52.074;5.126;2024-03-07T01:58:43;65.85;;;23.70;;
20511;SDS011;10414;52.074;5.126;2024-03-07T02:01:11;69.90;;;23.40;;
20511;SDS011;10414;52.074;5.126;2024-03-07T02:03:39;62.75;;;22.63;;
20511;SDS011;10414;52.074;5.126;2024-03-07T02:06:07;65.20;;;22.20;;
20511;SDS011;10414;52.074;5.126;2024-03-07T02:08:35;64.93;;;23.67;;
20511;SDS011;10414;52.074;5.126;2024-03-07T02:11:04;65.82;;;23.58;;
20511;SDS011;10414;52.074;5.126;2024-03-07T02:13:31;64.75;;;25.45;;
20511;SDS011;10414;52.074;5.126;2024-03-07T02:16:00;59.60;;;20.58;;
20511;SDS011;10414;52.074;5.126;2024-03-07T02:18:30;57.53;;;22.53;;
20511;SDS011;10414;52.074;5.126;2024-03-07T02:20:58;51.53;;;19.83;;
20511;SDS011;10414;52.074;5.126;2024-03-07T02:23:26;72.18;;;25.35;;
20511;SDS011;10414;52.074;5.126;2024-03-07T02:25:53;67.50;;;24.88;;
20511;SDS011;10414;52.074;5.126;2024-03-07T02:28:21;72.82;;;24.98;;
20511;SDS011;10414;52.074;5.126;2024-03-07T02:30:48;67.30;;;24.92;;
20511;SDS011;10414;52.074;5.126;2024-03-07T02:33:15;64.25;;;23.02;;
20511;SDS011;10414;52.074;5.126;2024-03-07T02:35:42;67.22;;;23.92;;
20511;SDS011;10414;52.074;5.126;2024-03-07T02:38:11;68.30;;;23.40;;
20511;SDS011;10414;52.074;5.126;2024-03-07T02:40:38;67.35;;;24.83;;
20511;SDS011;10414;52.074;5.126;2024-03-07T02:43:06;63.28;;;23.00;;
20511;SDS011;10414;52.074;5.126;2024-03-07T02:45:33;64.93;;;25.17;;
20511;SDS011;10414;52.074;5.126;2024-03-07T02:48:00;64.72;;;24.00;;
20511;SDS011;10414;52.074;5.126;2024-03-07T02:50:29;64.57;;;22.27;;
20511;SDS011;10414;52.074;5.126;2024-03-07T02:52:56;52.60;;;20.42;;
20511;SDS011;10414;52.074;5.126;2024-03-07T02:55:25;69.97;;;24.10;;
20511;SDS011;10414;52.074;5.126;2024-03-07T02:57:52;72.93;;;24.10;;
20511;SDS011;10414;52.074;5.126;2024-03-07T03:00:20;64.07;;;24.35;;
20511;SDS011;10414;52.074;5.126;2024-03-07T03:02:51;65.32;;;22.85;;
20511;SDS011;10414;52.074;5.126;2024-03-07T03:05:19;66.05;;;23.15;;
20511;SDS011;10414;52.074;5.126;2024-03-07T03:07:46;62.40;;;20.95;;
20511;SDS011;10414;52.074;5.126;2024-03-07T03:10:20;57.13;;;21.40;;
20511;SDS011;10414;52.074;5.126;2024-03-07T03:12:51;61.10;;;20.17;;
20511;SDS011;10414;52.074;5.126;2024-03-07T03:15:19;62.92;;;22.65;;
20511;SDS011;10414;52.074;5.126;2024-03-07T03:17:46;65.55;;;22.50;;
20511;SDS011;10414;52.074;5.126;2024-03-07T03:20:14;56.58;;;21.75;;
20511;SDS011;10414;52.074;5.126;2024-03-07T03:22:50;65.70;;;23.20;;
20511;SDS011;10414;52.074;5.126;2024-03-07T03:25:17;58.65;;;23.23;;
20511;SDS011;10414;52.074;5.126;2024-03-07T03:27:45;52.65;;;19.77;;
20511;SDS011;10414;52.074;5.126;2024-03-07T03:30:15;56.70;;;21.88;;
20511;SDS011;10414;52.074;5.126;2024-03-07T03:32:43;64.03;;;24.00;;
20511;SDS011;10414;52.074;5.126;2024-03-07T03:35:11;56.15;;;20.85;;
20511;SDS011;10414;52.074;5.126;2024-03-07T03:37:39;63.17;;;23.15;;
20511;SDS011;10414;52.074;5.126;2024-03-07T03:40:08;64.05;;;22.65;;
20511;SDS011;10414;52.074;5.126;2024-03-07T03:42:35;56.88;;;21.48;;
20511;SDS011;10414;52.074;5.126;2024-03-07T03:45:03;58.03;;;21.63;;
20511;SDS011;10414;52.074;5.126;2024-03-07T03:47:33;56.65;;;21.42;;
20511;SDS011;10414;52.074;5.126;2024-03-07T03:50:01;58.92;;;21.42;;
20511;SDS011;10414;52.074;5.126;2024-03-07T03:52:28;63.78;;;22.08;;
20511;SDS011;10414;52.074;5.126;2024-03-07T03:54:56;64.82;;;22.52;;
20511;SDS011;10414;52.074;5.126;2024-03-07T03:57:23;65.45;;;24.52;;
20511;SDS011;10414;52.074;5.126;2024-03-07T03:59:51;64.30;;;22.95;;
20511;SDS011;10414;52.074;5.126;2024-03-07T04:02:18;58.90;;;23.55;;
20511;SDS011;10414;52.074;5.126;2024-03-07T04:04:47;71.47;;;23.17;;
20511;SDS011;10414;52.074;5.126;2024-03-07T04:07:14;62.75;;;22.95;;
20511;SDS011;10414;52.074;5.126;2024-03-07T04:09:42;60.20;;;22.52;;
20511;SDS011;10414;52.074;5.126;2024-03-07T04:12:09;66.43;;;24.63;;
20511;SDS011;10414;52.074;5.126;2024-03-07T04:14:36;61.85;;;22.75;;
20511;SDS011;10414;52.074;5.126;2024-03-07T04:17:04;53.80;;;19.98;;
20511;SDS011;10414;52.074;5.126;2024-03-07T04:19:33;59.22;;;20.67;;
20511;SDS011;10414;52.074;5.126;2024-03-07T04:22:01;60.40;;;20.90;;
20511;SDS011;10414;52.074;5.126;2024-03-07T04:24:29;63.78;;;23.15;;
20511;SDS011;10414;52.074;5.126;2024-03-07T04:26:58;55.72;;;21.77;;
20511;SDS011;10414;52.074;5.126;2024-03-07T04:29:25;59.72;;;22.50;;
20511;SDS011;10414;52.074;5.126;2024-03-07T04:31:53;60.28;;;23.90;;
20511;SDS011;10414;52.074;5.126;2024-03-07T04:34:20;56.83;;;21.67;;
20511;SDS011;10414;52.074;5.126;2024-03-07T04:36:47;64.32;;;23.92;;
20511;SDS011;10414;52.074;5.126;2024-03-07T04:39:16;60.72;;;20.95;;
20511;SDS011;10414;52.074;5.126;2024-03-07T04:41:52;61.92;;;23.45;;
20511;SDS011;10414;52.074;5.126;2024-03-07T04:44:20;54.47;;;21.15;;
20511;SDS011;10414;52.074;5.126;2024-03-07T04:46:47;58.13;;;22.52;;
20511;SDS011;10414;52.074;5.126;2024-03-07T04:49:20;61.85;;;22.40;;
20511;SDS011;10414;52.074;5.126;2024-03-07T04:51:48;63.53;;;23.10;;
20511;SDS011;10414;52.074;5.126;2024-03-07T04:54:17;62.35;;;22.85;;
20511;SDS011;10414;52.074;5.126;2024-03-07T04:56:44;64.70;;;24.05;;
20511;SDS011;10414;52.074;5.126;2024-03-07T04:59:11;58.80;;;22.48;;
20511;SDS011;10414;52.074;5.126;2024-03-07T05:01:39;63.60;;;23.73;;
20511;SDS011;10414;52.074;5.126;2024-03-07T05:04:06;69.68;;;22.95;;
20511;SDS011;10414;52.074;5.126;2024-03-07T05:06:34;65.88;;;23.27;;
20511;SDS011;10414;52.074;5.126;2024-03-07T05:09:01;63.20;;;24.08;;
20511;SDS011;10414;52.074;5.126;2024-03-07T05:11:30;61.95;;;24.75;;
20511;SDS011;10414;52.074;5.126;2024-03-07T05:13:58;69.65;;;23.92;;
20511;SDS011;10414;52.074;5.126;2024-03-07T05:16:27;63.05;;;22.80;;
20511;SDS011;10414;52.074;5.126;2024-03-07T05:18:54;60.58;;;23.45;;
20511;SDS011;10414;52.074;5.126;2024-03-07T05:21:23;61.90;;;23.42;;
20511;SDS011;10414;52.074;5.126;2024-03-07T05:24:03;65.82;;;25.85;;
20511;SDS011;10414;52.074;5.126;2024-03-07T05:26:32;66.35;;;24.75;;
20511;SDS011;10414;52.074;5.126;2024-03-07T05:29:02;65.80;;;23.30;;
20511;SDS011;10414;52.074;5.126;2024-03-07T05:31:32;57.47;;;21.90;;
20511;SDS011;10414;52.074;5.126;2024-03-07T05:34:00;59.22;;;23.33;;
20511;SDS011;10414;52.074;5.126;2024-03-07T05:36:30;62.80;;;23.98;;
20511;SDS011;10414;52.074;5.126;2024-03-07T05:38:57;54.55;;;22.15;;
20511;SDS011;10414;52.074;5.126;2024-03-07T05:41:25;58.28;;;21.73;;
20511;SDS011;10414;52.074;5.126;2024-03-07T05:43:56;65.15;;;24.15;;
20511;SDS011;10414;52.074;5.126;2024-03-07T05:46:23;60.33;;;22.50;;
20511;SDS011;10414;52.074;5.126;2024-03-07T05:48:50;61.15;;;22.23;;
20511;SDS011;10414;52.074;5.126;2024-03-07T05:51:21;62.65;;;21.95;;
20511;SDS011;10414;52.074;5.126;2024-03-07T05:53:49;59.63;;;22.63;;
20511;SDS011;10414;52.074;5.126;2024-03-07T05:56:16;52.50;;;19.80;;
20511;SDS011;10414;52.074;5.126;2024-03-07T05:58:44;65.47;;;23.55;;
20511;SDS011;10414;52.074;5.126;2024-03-07T06:01:13;62.90;;;23.10;;
20511;SDS011;10414;52.074;5.126;2024-03-07T06:03:41;58.15;;;21.80;;
20511;SDS011;10414;52.074;5.126;2024-03-07T06:06:08;62.55;;;20.60;;
20511;SDS011;10414;52.074;5.126;2024-03-07T06:08:36;63.20;;;23.70;;
20511;SDS011;10414;52.074;5.126;2024-03-07T06:13:34;60.33;;;23.20;;
20511;SDS011;10414;52.074;5.126;2024-03-07T06:16:01;56.65;;;23.17;;
20511;SDS011;10414;52.074;5.126;2024-03-07T06:18:34;61.25;;;22.08;;
20511;SDS011;10414;52.074;5.126;2024-03-07T06:21:01;58.47;;;22.40;;
20511;SDS011;10414;52.074;5.126;2024-03-07T06:23:30;58.17;;;20.50;;
20511;SDS011;10414;52.074;5.126;2024-03-07T06:25:57;55.15;;;21.55;;
20511;SDS011;10414;52.074;5.126;2024-03-07T06:28:26;60.78;;;22.80;;
20511;SDS011;10414;52.074;5.126;2024-03-07T06:30:55;60.25;;;21.55;;
20511;SDS011;10414;52.074;5.126;2024-03-07T06:33:22;54.20;;;21.17;;
20511;SDS011;10414;52.074;5.126;2024-03-07T06:35:52;59.60;;;21.95;;
20511;SDS011;10414;52.074;5.126;2024-03-07T06:38:21;60.75;;;22.40;;
20511;SDS011;10414;52.074;5.126;2024-03-07T06:40:48;57.13;;;20.20;;
20511;SDS011;10414;52.074;5.126;2024-03-07T06:43:15;57.55;;;22.55;;
20511;SDS011;10414;52.074;5.126;2024-03-07T06:45:42;58.60;;;23.63;;
20511;SDS011;10414;52.074;5.126;2024-03-07T06:48:11;56.10;;;21.20;;
20511;SDS011;10414;52.074;5.126;2024-03-07T06:50:39;51.60;;;21.17;;
20511;SDS011;10414;52.074;5.126;2024-03-07T06:53:09;52.70;;;21.10;;
20511;SDS011;10414;52.074;5.126;2024-03-07T06:55:36;57.15;;;21.95;;
20511;SDS011;10414;52.074;5.126;2024-03-07T06:58:04;57.85;;;22.45;;
20511;SDS011;10414;52.074;5.126;2024-03-07T07:00:31;60.25;;;21.42;;
20511;SDS011;10414;52.074;5.126;2024-03-07T07:03:01;58.60;;;21.03;;
20511;SDS011;10414;52.074;5.126;2024-03-07T07:05:30;57.05;;;22.38;;
20511;SDS011;10414;52.074;5.126;2024-03-07T07:07:58;58.40;;;22.00;;
20511;SDS011;10414;52.074;5.126;2024-03-07T07:10:27;50.22;;;21.58;;
20511;SDS011;10414;52.074;5.126;2024-03-07T07:12:54;49.90;;;19.58;;
20511;SDS011;10414;52.074;5.126;2024-03-07T07:15:22;46.53;;;19.73;;
20511;SDS011;10414;52.074;5.126;2024-03-07T07:17:49;43.55;;;17.15;;
20511;SDS011;10414;52.074;5.126;2024-03-07T07:20:17;42.00;;;18.90;;
20511;SDS011;10414;52.074;5.126;2024-03-07T07:22:45;43.05;;;18.00;;
20511;SDS011;10414;52.074;5.126;2024-03-07T07:25:12;41.97;;;17.88;;
20511;SDS011;10414;52.074;5.126;2024-03-07T07:27:43;43.30;;;18.25;;
20511;SDS011;10414;52.074;5.126;2024-03-07T07:30:10;40.40;;;17.83;;
20511;SDS011;10414;52.074;5.126;2024-03-07T07:32:37;38.75;;;16.73;;
20511;SDS011;10414;52.074;5.126;2024-03-07T07:35:05;37.30;;;15.48;;
20511;SDS011;10414;52.074;5.126;2024-03-07T07:37:36;38.83;;;16.50;;
20511;SDS011;10414;52.074;5.126;2024-03-07T07:40:04;35.55;;;15.75;;
20511;SDS011;10414;52.074;5.126;2024-03-07T07:42:33;38.30;;;15.82;;
20511;SDS011;10414;52.074;5.126;2024-03-07T07:45:05;40.90;;;15.35;;
20511;SDS011;10414;52.074;5.126;2024-03-07T07:47:36;34.75;;;16.00;;
20511;SDS011;10414;52.074;5.126;2024-03-07T07:50:03;36.20;;;16.35;;
20511;SDS011;10414;52.074;5.126;2024-03-07T07:52:39;35.83;;;15.30;;
20511;SDS011;10414;52.074;5.126;2024-03-07T07:55:06;34.05;;;14.32;;
20511;SDS011;10414;52.074;5.126;2024-03-07T07:57:39;33.13;;;14.25;;
20511;SDS011;10414;52.074;5.126;2024-03-07T08:00:09;35.35;;;15.02;;
20511;SDS011;10414;52.074;5.126;2024-03-07T08:02:37;31.37;;;14.67;;
20511;SDS011;10414;52.074;5.126;2024-03-07T08:05:04;28.55;;;14.57;;
20511;SDS011;10414;52.074;5.126;2024-03-07T08:07:31;30.45;;;14.13;;
20511;SDS011;10414;52.074;5.126;2024-03-07T08:09:58;31.55;;;13.80;;
20511;SDS011;10414;52.074;5.126;2024-03-07T08:12:26;31.95;;;14.93;;
20511;SDS011;10414;52.074;5.126;2024-03-07T08:14:53;30.60;;;14.23;;
20511;SDS011;10414;52.074;5.126;2024-03-07T08:17:22;26.13;;;12.73;;
20511;SDS011;10414;52.074;5.126;2024-03-07T08:19:50;28.08;;;13.10;;
20511;SDS011;10414;52.074;5.126;2024-03-07T08:22:18;28.30;;;13.75;;
20511;SDS011;10414;52.074;5.126;2024-03-07T08:24:45;29.25;;;14.05;;
20511;SDS011;10414;52.074;5.126;2024-03-07T08:27:13;25.50;;;13.80;;
20511;SDS011;10414;52.074;5.126;2024-03-07T08:29:40;25.65;;;12.25;;
20511;SDS011;10414;52.074;5.126;2024-03-07T08:32:07;24.40;;;12.55;;
20511;SDS011;10414;52.074;5.126;2024-03-07T08:34:36;29.05;;;13.20;;
20511;SDS011;10414;52.074;5.126;2024-03-07T08:37:03;23.17;;;11.88;;
20511;SDS011;10414;52.074;5.126;2024-03-07T08:39:30;26.75;;;12.98;;
20511;SDS011;10414;52.074;5.126;2024-03-07T08:41:58;26.48;;;12.88;;
20511;SDS011;10414;52.074;5.126;2024-03-07T08:44:25;26.05;;;12.95;;
20511;SDS011;10414;52.074;5.126;2024-03-07T08:46:52;29.27;;;11.63;;
20511;SDS011;10414;52.074;5.126;2024-03-07T08:49:20;26.55;;;12.07;;
20511;SDS011;10414;52.074;5.126;2024-03-07T08:51:49;24.77;;;11.93;;
20511;SDS011;10414;52.074;5.126;2024-03-07T08:54:16;20.15;;;10.80;;
20511;SDS011;10414;52.074;5.126;2024-03-07T08:56:45;22.95;;;11.77;;
20511;SDS011;10414;52.074;5.126;2024-03-07T08:59:13;22.60;;;10.77;;
20511;SDS011;10414;52.074;5.126;2024-03-07T09:01:43;22.88;;;12.80;;
20511;SDS011;10414;52.074;5.126;2024-03-07T09:04:10;19.83;;;9.98;;
20511;SDS011;10414;52.074;5.126;2024-03-07T09:06:39;21.63;;;11.40;;
20511;SDS011;10414;52.074;5.126;2024-03-07T09:09:08;21.58;;;9.73;;
20511;SDS011;10414;52.074;5.126;2024-03-07T09:11:35;21.35;;;10.30;;
20511;SDS011;10414;52.074;5.126;2024-03-07T09:14:03;21.38;;;11.18;;
20511;SDS011;10414;52.074;5.126;2024-03-07T09:16:34;23.10;;;11.07;;
20511;SDS011;10414;52.074;5.126;2024-03-07T09:19:02;21.30;;;10.95;;
20511;SDS011;10414;52.074;5.126;2024-03-07T09:21:29;20.67;;;10.88;;
20511;SDS011;10414;52.074;5.126;2024-03-07T09:23:56;22.98;;;11.23;;
20511;SDS011;10414;52.074;5.126;2024-03-07T09:26:25;24.13;;;11.18;;
20511;SDS011;10414;52.074;5.126;2024-03-07T09:28:52;19.27;;;10.50;;
20511;SDS011;10414;52.074;5.126;2024-03-07T09:31:20;22.88;;;10.15;;
20511;SDS011;10414;52.074;5.126;2024-03-07T09:33:48;17.65;;;9.75;;
20511;SDS011;10414;52.074;5.126;2024-03-07T09:36:15;19.58;;;10.40;;
20511;SDS011;10414;52.074;5.126;2024-03-07T09:38:44;18.30;;;8.80;;
20511;SDS011;10414;52.074;5.126;2024-03-07T09:41:11;18.80;;;9.93;;
20511;SDS011;10414;52.074;5.126;2024-03-07T09:43:42;16.83;;;9.10;;
20511;SDS011;10414;52.074;5.126;2024-03-07T09:48:38;16.08;;;8.98;;
20511;SDS011;10414;52.074;5.126;2024-03-07T09:51:05;19.05;;;10.43;;
20511;SDS011;10414;52.074;5.126;2024-03-07T09:53:34;19.48;;;9.32;;
20511;SDS011;10414;52.074;5.126;2024-03-07T09:56:04;20.70;;;10.07;;
20511;SDS011;10414;52.074;5.126;2024-03-07T09:58:31;18.88;;;9.27;;
20511;SDS011;10414;52.074;5.126;2024-03-07T10:01:00;19.60;;;10.88;;
20511;SDS011;10414;52.074;5.126;2024-03-07T10:03:31;17.17;;;9.32;;
20511;SDS011;10414;52.074;5.126;2024-03-07T10:06:00;17.70;;;9.48;;
20511;SDS011;10414;52.074;5.126;2024-03-07T10:08:28;15.18;;;8.77;;
20511;SDS011;10414;52.074;5.126;2024-03-07T10:10:55;18.85;;;9.35;;
20511;SDS011;10414;52.074;5.126;2024-03-07T10:13:24;20.17;;;10.00;;
20511;SDS011;10414;52.074;5.126;2024-03-07T10:15:51;15.75;;;8.48;;
20511;SDS011;10414;52.074;5.126;2024-03-07T10:18:22;17.60;;;10.23;;
20511;SDS011;10414;52.074;5.126;2024-03-07T10:20:52;18.23;;;9.63;;
20511;SDS011;10414;52.074;5.126;2024-03-07T10:23:20;19.65;;;10.23;;
20511;SDS011;10414;52.074;5.126;2024-03-07T10:25:47;18.27;;;9.43;;
20511;SDS011;10414;52.074;5.126;2024-03-07T10:28:15;17.80;;;9.60;;
20511;SDS011;10414;52.074;5.126;2024-03-07T10:30:43;20.48;;;9.70;;
20511;SDS011;10414;52.074;5.126;2024-03-07T10:33:10;19.23;;;10.05;;
20511;SDS011;10414;52.074;5.126;2024-03-07T10:35:41;18.00;;;8.90;;
20511;SDS011;10414;52.074;5.126;2024-03-07T10:38:08;16.65;;;8.70;;
20511;SDS011;10414;52.074;5.126;2024-03-07T10:40:36;14.70;;;7.88;;
20511;SDS011;10414;52.074;5.126;2024-03-07T10:43:07;15.68;;;7.53;;
20511;SDS011;10414;52.074;5.126;2024-03-07T10:45:37;17.02;;;8.13;;
20511;SDS011;10414;52.074;5.126;2024-03-07T10:50:38;16.15;;;7.85;;
20511;SDS011;10414;52.074;5.126;2024-03-07T10:53:10;19.63;;;9.40;;
20511;SDS011;10414;52.074;5.126;2024-03-07T10:55:43;15.95;;;8.52;;
20511;SDS011;10414;52.074;5.126;2024-03-07T10:58:14;18.13;;;9.63;;
20511;SDS011;10414;52.074;5.126;2024-03-07T11:00:46;18.98;;;9.00;;
20511;SDS011;10414;52.074;5.126;2024-03-07T11:03:14;16.55;;;8.98;;
20511;SDS011;10414;52.074;5.126;2024-03-07T11:05:45;18.90;;;8.68;;
20511;SDS011;10414;52.074;5.126;2024-03-07T11:08:15;17.35;;;8.25;;
20511;SDS011;10414;52.074;5.126;2024-03-07T11:10:44;19.05;;;9.63;;
20511;SDS011;10414;52.074;5.126;2024-03-07T11:13:12;16.30;;;7.53;;
20511;SDS011;10414;52.074;5.126;2024-03-07T11:15:43;17.65;;;8.50;;
20511;SDS011;10414;52.074;5.126;2024-03-07T11:18:11;14.30;;;7.33;;
20511;SDS011;10414;52.074;5.126;2024-03-07T11:20:39;16.38;;;8.27;;
20511;SDS011;10414;52.074;5.126;2024-03-07T11:23:28;16.17;;;8.20;;
20511;SDS011;10414;52.074;5.126;2024-03-07T11:25:56;16.50;;;7.32;;
20511;SDS011;10414;52.074;5.126;2024-03-07T11:28:29;21.23;;;8.05;;
20511;SDS011;10414;52.074;5.126;2024-03-07T11:31:12;19.05;;;8.57;;
20511;SDS011;10414;52.074;5.126;2024-03-07T11:33:40;18.63;;;8.52;;
20511;SDS011;10414;52.074;5.126;2024-03-07T11:36:08;18.38;;;7.82;;
20511;SDS011;10414;52.074;5.126;2024-03-07T11:38:38;18.15;;;8.15;;
20511;SDS011;10414;52.074;5.126;2024-03-07T11:41:06;17.63;;;7.55;;
20511;SDS011;10414;52.074;5.126;2024-03-07T11:43:38;15.02;;;7.38;;
20511;SDS011;10414;52.074;5.126;2024-03-07T11:46:07;16.80;;;7.07;;
20511;SDS011;10414;52.074;5.126;2024-03-07T11:48:38;15.93;;;6.85;;
20511;SDS011;10414;52.074;5.126;2024-03-07T11:51:07;14.32;;;7.15;;
20511;SDS011;10414;52.074;5.126;2024-03-07T11:53:36;14.00;;;6.20;;
20511;SDS011;10414;52.074;5.126;2024-03-07T11:56:05;15.32;;;8.13;;
20511;SDS011;10414;52.074;5.126;2024-03-07T11:58:37;14.18;;;6.70;;
20511;SDS011;10414;52.074;5.126;2024-03-07T12:01:06;16.35;;;7.97;;
20511;SDS011;10414;52.074;5.126;2024-03-07T12:03:38;15.40;;;7.82;;
20511;SDS011;10414;52.074;5.126;2024-03-07T12:06:06;16.45;;;8.43;;
20511;SDS011;10414;52.074;5.126;2024-03-07T12:08:37;14.57;;;7.32;;
20511;SDS011;10414;52.074;5.126;2024-03-07T12:11:08;16.73;;;7.00;;
20511;SDS011;10414;52.074;5.126;2024-03-07T12:13:40;17.55;;;7.90;;
20511;SDS011;10414;52.074;5.126;2024-03-07T12:16:08;17.20;;;7.53;;
20511;SDS011;10414;52.074;5.126;2024-03-07T12:18:35;16.50;;;8.10;;
20511;SDS011;10414;52.074;5.126;2024-03-07T12:21:03;17.02;;;7.82;;
20511;SDS011;10414;52.074;5.126;2024-03-07T12:23:33;13.02;;;6.22;;
20511;SDS011;10414;52.074;5.126;2024-03-07T12:26:01;13.93;;;7.18;;
20511;SDS011;10414;52.074;5.126;2024-03-07T12:28:30;17.20;;;7.57;;
20511;SDS011;10414;52.074;5.126;2024-03-07T12:30:58;16.63;;;7.00;;
20511;SDS011;10414;52.074;5.126;2024-03-07T12:33:27;15.20;;;7.18;;
20511;SDS011;10414;52.074;5.126;2024-03-07T12:35:57;16.42;;;7.35;;
20511;SDS011;10414;52.074;5.126;2024-03-07T12:38:31;14.80;;;6.72;;
20511;SDS011;10414;52.074;5.126;2024-03-07T12:41:04;14.27;;;6.43;;
20511;SDS011;10414;52.074;5.126;2024-03-07T12:43:33;21.15;;;9.07;;
20511;SDS011;10414;52.074;5.126;2024-03-07T12:46:01;17.92;;;8.02;;
20511;SDS011;10414;52.074;5.126;2024-03-07T12:48:30;19.02;;;7.90;;
20511;SDS011;10414;52.074;5.126;2024-03-07T12:50:58;18.85;;;8.50;;
20511;SDS011;10414;52.074;5.126;2024-03-07T12:53:26;18.65;;;8.95;;
20511;SDS011;10414;52.074;5.126;2024-03-07T12:55:54;17.00;;;8.43;;
20511;SDS011;10414;52.074;5.126;2024-03-07T12:58:22;18.08;;;8.80;;
20511;SDS011;10414;52.074;5.126;2024-03-07T13:00:52;17.88;;;8.77;;
20511;SDS011;10414;52.074;5.126;2024-03-07T13:03:20;17.63;;;7.97;;
20511;SDS011;10414;52.074;5.126;2024-03-07T13:05:48;15.82;;;8.55;;
20511;SDS011;10414;52.074;5.126;2024-03-07T13:08:15;17.35;;;7.85;;
20511;SDS011;10414;52.074;5.126;2024-03-07T13:10:43;14.30;;;7.05;;
20511;SDS011;10414;52.074;5.126;2024-03-07T13:13:10;20.77;;;8.07;;
20511;SDS011;10414;52.074;5.126;2024-03-07T13:15:38;17.65;;;8.27;;
20511;SDS011;10414;52.074;5.126;2024-03-07T13:18:08;18.08;;;8.57;;
20511;SDS011;10414;52.074;5.126;2024-03-07T13:20:36;18.55;;;8.65;;
20511;SDS011;10414;52.074;5.126;2024-03-07T13:23:03;16.02;;;7.85;;
20511;SDS011;10414;52.074;5.126;2024-03-07T13:25:31;15.65;;;7.43;;
20511;SDS011;10414;52.074;5.126;2024-03-07T13:28:00;19.20;;;8.40;;
20511;SDS011;10414;52.074;5.126;2024-03-07T13:30:28;17.17;;;7.57;;
20511;SDS011;10414;52.074;5.126;2024-03-07T13:32:56;21.10;;;8.48;;
20511;SDS011;10414;52.074;5.126;2024-03-07T13:35:25;17.08;;;8.23;;
20511;SDS011;10414;52.074;5.126;2024-03-07T13:37:53;17.17;;;8.05;;
20511;SDS011;10414;52.074;5.126;2024-03-07T13:40:21;16.90;;;7.60;;
20511;SDS011;10414;52.074;5.126;2024-03-07T13:42:52;17.25;;;8.60;;
20511;SDS011;10414;52.074;5.126;2024-03-07T13:45:20;17.02;;;8.43;;
20511;SDS011;10414;52.074;5.126;2024-03-07T13:47:48;23.85;;;8.30;;
20511;SDS011;10414;52.074;5.126;2024-03-07T13:50:15;18.05;;;7.30;;
20511;SDS011;10414;52.074;5.126;2024-03-07T13:52:46;16.42;;;7.45;;
20511;SDS011;10414;52.074;5.126;2024-03-07T13:55:32;17.92;;;8.45;;
20511;SDS011;10414;52.074;5.126;2024-03-07T13:58:02;17.10;;;8.40;;
20511;SDS011;10414;52.074;5.126;2024-03-07T14:00:34;17.60;;;10.03;;
20511;SDS011;10414;52.074;5.126;2024-03-07T14:05:54;19.05;;;8.40;;
20511;SDS011;10414;52.074;5.126;2024-03-07T14:13:59;18.00;;;7.97;;
20511;SDS011;10414;52.074;5.126;2024-03-07T14:16:43;16.83;;;7.67;;
20511;SDS011;10414;52.074;5.126;2024-03-07T14:19:33;17.08;;;8.15;;
20511;SDS011;10414;52.074;5.126;2024-03-07T14:22:21;17.98;;;9.20;;
20511;SDS011;10414;52.074;5.126;2024-03-07T14:25:17;16.27;;;8.50;;
20511;SDS011;10414;52.074;5.126;2024-03-07T14:27:50;17.30;;;8.52;;
20511;SDS011;10414;52.074;5.126;2024-03-07T14:30:23;17.10;;;8.60;;
20511;SDS011;10414;52.074;5.126;2024-03-07T14:32:53;15.68;;;7.78;;
20511;SDS011;10414;52.074;5.126;2024-03-07T14:35:25;18.60;;;10.07;;
20511;SDS011;10414;52.074;5.126;2024-03-07T14:37:55;15.82;;;8.02;;
20511;SDS011;10414;52.074;5.126;2024-03-07T14:40:30;18.23;;;9.98;;
20511;SDS011;10414;52.074;5.126;2024-03-07T14:42:58;19.02;;;9.70;;
20511;SDS011;10414;52.074;5.126;2024-03-07T14:45:32;18.30;;;8.90;;
20511;SDS011;10414;52.074;5.126;2024-03-07T14:48:01;19.05;;;9.80;;
20511;SDS011;10414;52.074;5.126;2024-03-07T14:50:29;21.45;;;10.48;;
20511;SDS011;10414;52.074;5.126;2024-03-07T14:52:57;21.00;;;9.43;;